Main page
Satellite images 10-day forecastsClimateMarine weather Cyclones Lightning AirportsFAQ Newsletter About
Weather : Europe Africa North America South America Asia Australia-Oceania Others
Languages Contact

Warsaw, Poland

Warsaw Chopin Airport

latitude: 52-10N, longitude: 020-58E, elevation: 106 m


METAR: EPWA 301800Z 29006KT CAVOK 18/09 Q1012 NOSIG
TAF: EPWA 301730Z 3018/3118 27008KT CAVOK

Time: 20:17 (18:17 UTC)

Current weather observation

The report was made 17 minutes ago, at 18:00 UTC
Wind 6 kt from the West/Northwest
Temperature 18°C
Humidity 56%
Pressure 1012 hPa
Visibility 10 km or more
no clouds below 1500 m and no cumulonimbus

Change units

Forecast

The report was made 47 minutes ago, at 17:30 UTC
Forecast valid from 30 at 18 UTC to 31 at 18 UTC
Wind 8 kt from the West
Visibility 10 km or more
no clouds below 1500 m and no cumulonimbus
The information on this site is subject to a disclaimer
Weather : Europe Africa North America South America Asia Australia-Oceania Others
Satellite images 10-day forecastsClimateMarine weather Cyclones Lightning AirportsFAQ Languages Contact Newsletter About